GBYD Airport Information

Runway Information
Runway 14 Length 11811 ft width 148 ft Elevation 88 ft Threshold N/A Heading 131
Runway 32 Length 11811 ft Width 148 ft Elevation 74 ft Threshold N/A Heading 311
Airport Frequencies
Type APP Name APP Frequency 121.3 MHZ
Type GND Name GND Frequency 121.9 MHZ
Type TWR Name TWR Frequency 118.3 MHZ
Airport Navaids
Type VOR-DME Name Banjul Frequency 112900 KHZ
Type NDB Name Banjul Frequency 256 KHZ
Airport Weather Information & NOTAM
ADDS - METARS form results

(1735 UTC 06 December 2022)
Data provider http://aviationweather.gov/metar/data/
 
Forecast for: GBYD (BANJUL/YUNDUM IN, GM)
Text: TAF GBYD 061100Z 0612/0718 03006KT CAVOK
Forecast period: 1200 UTC 06 December 2022 to 1800 UTC 07 December 2022
Forecast type: FROM: standard forecast or significant change
Winds: from the NNE (30 degrees) at 7 MPH (6 knots; 3.1 m/s)
Visibility: 6 or more miles (10+ km)
Ceiling: unknown
Clouds: missing
Weather: NSW  (no significant weather)